Terminal Aerodrome Forecast
Issued by NWS Atlanta, GA

Home | Current Version | Previous Version | Text Only | Print | Product List | Glossary On
Versions: 1 2 3 4 5 6 7 8 9 10 11 12 13 14 15 16 17 18
450
FTUS42 KFFC 240527
TAFMCN
TAF
KMCN 240527Z 2406/2506 29006KT P6SM SKC
     FM241500 27010G20KT P6SM SCT250
     FM242300 28008KT P6SM SKC=

USA.gov is the U.S. government's official web portal to all federal, state and local government web resources and services.